Back to Top

Language: 

My Weather Underground Personal Weather Station Historical Data with Graphs...

Delerius Weather Station Historical Data
Daily Summary for January 11, 2017 Units:  Metric    English   Both
« Previous Day
Next Day »
Daily Weekly Monthly Yearly Custom
  High: Low: Average:
Temperature: 11.1 °C 4.2 °C 7.6 °C
Dew Point: 8.6 °C 0.3 °C 3.3 °C
Humidity: 92 % 61 % 75 %
Wind Speed: 49.9 km/h 11.3 km/h 32.3 km/h
Wind Gust: 93.3 km/h - -
Wind:- - West
Pressure: 1008.4 hPa 999.5 hPa -
Precipitation: 0 mm    
Historical Graphs
 
 
Tabular Data for January 11, 2017
Time Temperature Dew Point Pressure Wind Wind Speed Wind Gust Humidity Rainfall Rate (Hourly) solar Conditions
00:01 8.7 °C 6.5 °C 1005 hPa WSW 19.3 km/h -1607.7 km/h 86 % 0 mm 0 W/m2
00:06 8.7 °C 6.5 °C 1005 hPa WSW 19.3 km/h -1607.7 km/h 86 % 0 mm 0 W/m2
00:11 8.7 °C 6.5 °C 1005 hPa WSW 19.3 km/h -1607.7 km/h 86 % 0 mm 0 W/m2
00:16 8.7 °C 6.5 °C 1005 hPa WSW 19.3 km/h -1607.7 km/h 86 % 0 mm 0 W/m2
00:21 8.7 °C 6.5 °C 1005 hPa WSW 19.3 km/h -1607.7 km/h 86 % 0 mm 0 W/m2
00:26 8.8 °C 6.6 °C 1005 hPa WSW 22.5 km/h -1607.7 km/h 86 % 0 mm 0 W/m2
00:31 8.8 °C 6.6 °C 1005 hPa WSW 22.5 km/h -1607.7 km/h 86 % 0 mm 0 W/m2
00:36 8.8 °C 6.6 °C 1005 hPa WSW 22.5 km/h -1607.7 km/h 86 % 0 mm 0 W/m2
00:41 8.9 °C 6.8 °C 1004.3 hPa WSW 27.4 km/h -1607.7 km/h 87 % 0 mm 0 W/m2
00:46 8.9 °C 6.8 °C 1004.3 hPa WSW 27.4 km/h -1607.7 km/h 87 % 0 mm 0 W/m2
00:51 8.9 °C 6.8 °C 1004.3 hPa WSW 27.4 km/h -1607.7 km/h 87 % 0 mm 0 W/m2
00:56 8.9 °C 7.1 °C 1004.3 hPa WSW 25.7 km/h -1607.7 km/h 88 % 0 mm 0 W/m2
01:01 8.9 °C 7.1 °C 1004.3 hPa WSW 25.7 km/h -1607.7 km/h 88 % 0 mm 0 W/m2
01:06 8.9 °C 7.1 °C 1004.3 hPa WSW 25.7 km/h -1607.7 km/h 88 % 0 mm 0 W/m2
01:11 8.9 °C 7 °C 1004.3 hPa WSW 19.3 km/h -1607.7 km/h 88 % 0 mm 0 W/m2
01:16 8.9 °C 7 °C 1004.3 hPa WSW 19.3 km/h -1607.7 km/h 88 % 0 mm 0 W/m2
01:21 8.9 °C 7 °C 1004.3 hPa WSW 19.3 km/h -1607.7 km/h 88 % 0 mm 0 W/m2
01:26 8.7 °C 7 °C 1003.6 hPa SW 14.5 km/h -1607.7 km/h 89 % 0 mm 0 W/m2
01:31 8.7 °C 7 °C 1003.6 hPa SW 14.5 km/h -1607.7 km/h 89 % 0 mm 0 W/m2
01:36 8.7 °C 7 °C 1003.6 hPa SW 14.5 km/h -1607.7 km/h 89 % 0 mm 0 W/m2
01:41 8.6 °C 6.9 °C 1003.3 hPa SW 12.9 km/h -1607.7 km/h 89 % 0 mm 0 W/m2
01:46 8.6 °C 6.9 °C 1003.3 hPa SW 12.9 km/h -1607.7 km/h 89 % 0 mm 0 W/m2
01:51 8.6 °C 6.9 °C 1003.3 hPa SW 12.9 km/h -1607.7 km/h 89 % 0 mm 0 W/m2
01:56 8.4 °C 6.9 °C 1002.9 hPa SW 16.1 km/h -1607.7 km/h 90 % 0 mm 0 W/m2
02:01 8.4 °C 6.9 °C 1002.9 hPa SW 16.1 km/h -1607.7 km/h 90 % 0 mm 0 W/m2
02:06 8.4 °C 6.9 °C 1002.9 hPa SW 16.1 km/h -1607.7 km/h 90 % 0 mm 0 W/m2
02:11 8.4 °C 7 °C 1002.9 hPa SW 17.7 km/h -1607.7 km/h 91 % 0 mm 0 W/m2
02:16 8.4 °C 7 °C 1002.9 hPa SW 17.7 km/h -1607.7 km/h 91 % 0 mm 0 W/m2
02:21 8.4 °C 7 °C 1002.9 hPa SW 17.7 km/h -1607.7 km/h 91 % 0 mm 0 W/m2
02:26 8.5 °C 7.1 °C 1002.6 hPa SW 11.3 km/h -1607.7 km/h 91 % 0 mm 0 W/m2
02:31 8.5 °C 7.1 °C 1002.6 hPa SW 11.3 km/h -1607.7 km/h 91 % 0 mm 0 W/m2
02:36 8.5 °C 7.1 °C 1002.6 hPa SW 11.3 km/h -1607.7 km/h 91 % 0 mm 0 W/m2
02:41 8.7 °C 7.5 °C 1002.6 hPa SW 14.5 km/h -1607.7 km/h 92 % 0 mm 0 W/m2
02:46 8.7 °C 7.5 °C 1002.6 hPa SW 14.5 km/h -1607.7 km/h 92 % 0 mm 0 W/m2
02:51 8.7 °C 7.5 °C 1002.6 hPa SW 14.5 km/h -1607.7 km/h 92 % 0 mm 0 W/m2
02:56 9.3 °C 7.9 °C 1002.3 hPa West 20.9 km/h -1607.7 km/h 91 % 0 mm 0 W/m2
03:01 9.3 °C 7.9 °C 1002.3 hPa West 20.9 km/h -1607.7 km/h 91 % 0 mm 0 W/m2
03:06 9.3 °C 7.9 °C 1002.3 hPa West 20.9 km/h -1607.7 km/h 91 % 0 mm 0 W/m2
03:11 9.8 °C 8.3 °C 1002.3 hPa West 25.7 km/h -1607.7 km/h 90 % 0 mm 0 W/m2
03:16 9.8 °C 8.3 °C 1002.3 hPa West 25.7 km/h -1607.7 km/h 90 % 0 mm 0 W/m2
03:21 9.8 °C 8.3 °C 1002.3 hPa West 25.7 km/h -1607.7 km/h 90 % 0 mm 0 W/m2
03:26 10.6 °C 8.6 °C 1001.9 hPa West 27.4 km/h -1607.7 km/h 87 % 0 mm 0 W/m2
03:31 10.6 °C 8.6 °C 1001.9 hPa West 27.4 km/h -1607.7 km/h 87 % 0 mm 0 W/m2
03:36 10.6 °C 8.6 °C 1001.9 hPa West 27.4 km/h -1607.7 km/h 87 % 0 mm 0 W/m2
03:41 11 °C 8.6 °C 1000.9 hPa West 25.7 km/h -1607.7 km/h 85 % 0 mm 0 W/m2
03:46 11 °C 8.6 °C 1000.9 hPa West 25.7 km/h -1607.7 km/h 85 % 0 mm 0 W/m2
03:51 11 °C 8.6 °C 1000.9 hPa West 25.7 km/h -1607.7 km/h 85 % 0 mm 0 W/m2
03:56 11.1 °C 8.5 °C 1000.6 hPa West 27.4 km/h -1607.7 km/h 84 % 0 mm 0 W/m2
04:01 11.1 °C 8.5 °C 1000.6 hPa West 27.4 km/h -1607.7 km/h 84 % 0 mm 0 W/m2
04:06 11.1 °C 8.5 °C 1000.6 hPa West 27.4 km/h -1607.7 km/h 84 % 0 mm 0 W/m2
04:11 11.1 °C 8.3 °C 1000.2 hPa West 35.4 km/h -1607.7 km/h 83 % 0 mm 0 W/m2
04:16 11.1 °C 8.3 °C 1000.2 hPa West 35.4 km/h -1607.7 km/h 83 % 0 mm 0 W/m2
04:21 11.1 °C 8.3 °C 1000.2 hPa West 35.4 km/h -1607.7 km/h 83 % 0 mm 0 W/m2
04:26 11.1 °C 8.1 °C 999.9 hPa West 37 km/h -1607.7 km/h 82 % 0 mm 0 W/m2
04:31 11.1 °C 8.1 °C 999.9 hPa West 37 km/h -1607.7 km/h 82 % 0 mm 0 W/m2
04:36 11.1 °C 8.1 °C 999.9 hPa West 37 km/h -1607.7 km/h 82 % 0 mm 0 W/m2
04:41 10.9 °C 8.2 °C 999.9 hPa West 37 km/h -1607.7 km/h 83 % 0 mm 0 W/m2
04:46 10.9 °C 8.2 °C 999.9 hPa West 37 km/h -1607.7 km/h 83 % 0 mm 0 W/m2
04:51 10.9 °C 8.2 °C 999.9 hPa West 37 km/h -1607.7 km/h 83 % 0 mm 0 W/m2
04:56 10.7 °C 7.9 °C 999.5 hPa WNW 37 km/h -1607.7 km/h 83 % 0 mm 0 W/m2
05:01 10.7 °C 7.9 °C 999.5 hPa WNW 37 km/h -1607.7 km/h 83 % 0 mm 0 W/m2
05:06 10.7 °C 7.9 °C 999.5 hPa WNW 37 km/h -1607.7 km/h 83 % 0 mm 0 W/m2
05:11 10.3 °C 6.1 °C 999.5 hPa WNW 41.8 km/h -1607.7 km/h 75 % 0 mm 0 W/m2
05:16 10.3 °C 6.1 °C 999.5 hPa WNW 41.8 km/h -1607.7 km/h 75 % 0 mm 0 W/m2
05:21 10.3 °C 6.1 °C 999.5 hPa WNW 41.8 km/h -1607.7 km/h 75 % 0 mm 0 W/m2
05:26 9.8 °C 5.8 °C 999.5 hPa WNW 38.6 km/h -1607.7 km/h 76 % 0 mm 0 W/m2
05:31 9.8 °C 5.8 °C 999.5 hPa WNW 38.6 km/h -1607.7 km/h 76 % 0 mm 0 W/m2
05:36 9.8 °C 5.8 °C 999.5 hPa WNW 38.6 km/h -1607.7 km/h 76 % 0 mm 0 W/m2
05:41 9.4 °C 5 °C 999.5 hPa WNW 41.8 km/h -1607.7 km/h 74 % 0 mm 0 W/m2
05:46 9.4 °C 5 °C 999.5 hPa WNW 41.8 km/h -1607.7 km/h 74 % 0 mm 0 W/m2
05:51 9.4 °C 5 °C 999.5 hPa WNW 41.8 km/h -1607.7 km/h 74 % 0 mm 0 W/m2
05:56 9.1 °C 3.7 °C 1000.2 hPa WNW 41.8 km/h -1607.7 km/h 69 % 0 mm 0 W/m2
06:10 8.9 °C 3.3 °C 1000.6 hPa West 41.8 km/h 41.8 km/h 68 % 0 mm 0 W/m2
06:20 8.8 °C 3.1 °C 1000.6 hPa WNW 43.5 km/h 59.5 km/h 67 % 0 mm 0 W/m2
06:30 8.7 °C 3.2 °C 1000.6 hPa North 38.6 km/h 41.8 km/h 68 % 0 mm 0 W/m2
06:35 8.7 °C 3.2 °C 1000.6 hPa WNW 40.2 km/h 48.3 km/h 68 % 0 mm 0 W/m2
06:40 8.7 °C 3.2 °C 1000.6 hPa WNW 41.8 km/h 48.3 km/h 68 % 0 mm 0 W/m2
06:45 8.6 °C 3.2 °C 1000.6 hPa WNW 37 km/h 37 km/h 69 % 0 mm 0 W/m2
06:55 8.6 °C 3.6 °C 1001.6 hPa West 33.8 km/h 35.4 km/h 71 % 0 mm 0 W/m2
07:05 8.5 °C 4.1 °C 1001.2 hPa West 35.4 km/h 93.3 km/h 74 % 0 mm 0 W/m2
07:10 8.4 °C 4.1 °C 1001.6 hPa West 33.8 km/h 93.3 km/h 74 % 0 mm 0 W/m2
07:15 8.4 °C 4.2 °C 1001.9 hPa SW 35.4 km/h 93.3 km/h 75 % 0 mm 0 W/m2
07:20 8.4 °C 4 °C 1001.9 hPa WNW 37 km/h 37 km/h 74 % 0 mm 0 W/m2
07:25 8.3 °C 3.9 °C 1001.9 hPa West 33.8 km/h 41.8 km/h 74 % 0 mm 0 W/m2
07:30 8.2 °C 3.6 °C 1001.9 hPa WNW 32.2 km/h 32.2 km/h 73 % 0 mm 0 W/m2
07:35 8.1 °C 3.6 °C 1001.9 hPa West 30.6 km/h 93.3 km/h 73 % 0 mm 0 W/m2
07:45 8 °C 3.1 °C 1002.3 hPa WNW 30.6 km/h 37 km/h 71 % 0 mm 0 W/m2
07:50 8 °C 3.1 °C 1001.9 hPa West 33.8 km/h 93.3 km/h 71 % 0 mm 0 W/m2
07:55 8 °C 3.1 °C 1001.9 hPa WNW 35.4 km/h 93.3 km/h 71 % 0 mm 0 W/m2
08:00 8.1 °C 2.9 °C 1001.9 hPa West 37 km/h 93.3 km/h 70 % 0 mm 0 W/m2
08:05 8.1 °C 3.2 °C 1001.9 hPa West 40.2 km/h 93.3 km/h 71 % 0 mm 0 W/m2
08:10 8.1 °C 3.5 °C 1001.9 hPa WSW 45.1 km/h 45.1 km/h 73 % 0 mm 0 W/m2
08:20 7.8 °C 4.2 °C 1001.6 hPa West 41.8 km/h 41.8 km/h 78 % 0 mm 0 W/m2
08:25 7.7 °C 4.3 °C 1001.9 hPa WNW 40.2 km/h 45.1 km/h 79 % 0 mm 0 W/m2
08:30 7.6 °C 4.4 °C 1001.9 hPa WNW 38.6 km/h 93.3 km/h 80 % 0 mm 7 W/m2
08:35 7.6 °C 4.3 °C 1001.9 hPa West 38.6 km/h 93.3 km/h 80 % 0 mm 9 W/m2
08:40 7.6 °C 4.3 °C 1001.9 hPa NW 38.6 km/h 38.6 km/h 80 % 0 mm 18 W/m2
08:45 7.5 °C 4.3 °C 1001.9 hPa West 38.6 km/h 49.9 km/h 80 % 0 mm 11 W/m2
08:55 7.6 °C 2.9 °C 1002.6 hPa WNW 48.3 km/h 93.3 km/h 72 % 0 mm 18 W/m2
09:00 7.6 °C 2.8 °C 1002.6 hPa West 41.8 km/h 41.8 km/h 72 % 0 mm 21 W/m2
09:05 7.6 °C 2.9 °C 1002.6 hPa WNW 37 km/h 43.5 km/h 72 % 0 mm 26 W/m2
09:10 7.6 °C 3.1 °C 1002.6 hPa WNW 38.6 km/h 93.3 km/h 73 % 0 mm 33 W/m2
09:15 7.6 °C 3.1 °C 1002.9 hPa NW 38.6 km/h 93.3 km/h 73 % 0 mm 37 W/m2
09:20 7.6 °C 2.9 °C 1002.9 hPa NW 38.6 km/h 38.6 km/h 72 % 0 mm 39 W/m2
09:30 7.7 °C 2.3 °C 1002.9 hPa WNW 40.2 km/h 93.3 km/h 69 % 0 mm 113 W/m2
09:35 7.7 °C 2.2 °C 1003.3 hPa WNW 38.6 km/h 93.3 km/h 68 % 0 mm 121 W/m2
09:40 7.7 °C 2.2 °C 1002.9 hPa West 37 km/h 93.3 km/h 68 % 0 mm 128 W/m2
09:45 7.8 °C 2.4 °C 1003.3 hPa NNW 38.6 km/h 93.3 km/h 69 % 0 mm 139 W/m2
09:50 7.8 °C 2.7 °C 1003.6 hPa WNW 35.4 km/h 35.4 km/h 70 % 0 mm 142 W/m2
09:55 7.9 °C 2.9 °C 1003.9 hPa WNW 33.8 km/h 51.5 km/h 71 % 0 mm 144 W/m2
10:05 7.9 °C 2.6 °C 1003.9 hPa NW 40.2 km/h 93.3 km/h 69 % 0 mm 160 W/m2
10:10 7.9 °C 2.8 °C 1003.9 hPa West 37 km/h 93.3 km/h 70 % 0 mm 167 W/m2
10:15 7.9 °C 2.9 °C 1004.3 hPa WNW 35.4 km/h 93.3 km/h 71 % 0 mm 171 W/m2
10:20 7.9 °C 2.9 °C 1004.6 hPa NW 37 km/h 37 km/h 71 % 0 mm 178 W/m2
10:30 7.8 °C 2.9 °C 1003.9 hPa West 38.6 km/h 93.3 km/h 71 % 0 mm 183 W/m2
10:35 7.8 °C 2.9 °C 1004.6 hPa WNW 40.2 km/h 93.3 km/h 71 % 0 mm 199 W/m2
10:45 7.9 °C 2.8 °C 1004.6 hPa WNW 38.6 km/h 93.3 km/h 70 % 0 mm 227 W/m2
10:50 8.1 °C 2.7 °C 1005 hPa WNW 38.6 km/h 38.6 km/h 69 % 0 mm 216 W/m2
10:55 8.1 °C 2.3 °C 1004.6 hPa NW 40.2 km/h 40.2 km/h 67 % 0 mm 229 W/m2
11:00 8.1 °C 2.1 °C 1005 hPa WNW 41.8 km/h 41.8 km/h 66 % 0 mm 229 W/m2
11:05 8.1 °C 2.1 °C 1004.6 hPa WNW 40.2 km/h 93.3 km/h 66 % 0 mm 229 W/m2
11:10 8.1 °C 2.1 °C 1004.6 hPa WNW 38.6 km/h 93.3 km/h 66 % 0 mm 230 W/m2
11:20 8.2 °C 2.2 °C 1004.3 hPa NW 38.6 km/h 93.3 km/h 66 % 0 mm 239 W/m2
11:25 8.2 °C 1.8 °C 1004.3 hPa West 43.5 km/h 93.3 km/h 64 % 0 mm 243 W/m2
11:30 8.2 °C 1.6 °C 1004.3 hPa WNW 49.9 km/h 93.3 km/h 63 % 0 mm 253 W/m2
11:35 8.2 °C 1.8 °C 1004.3 hPa NW 48.3 km/h 93.3 km/h 64 % 0 mm 258 W/m2
11:40 8.2 °C 1.4 °C 1004.3 hPa NNW 43.5 km/h 43.5 km/h 62 % 0 mm 262 W/m2
11:45 8.3 °C 1.7 °C 1004.6 hPa West 41.8 km/h 93.3 km/h 63 % 0 mm 267 W/m2
11:50 8.3 °C 1.7 °C 1004.6 hPa West 38.6 km/h 38.6 km/h 63 % 0 mm 253 W/m2
12:00 8.4 °C 2.2 °C 1004.3 hPa NW 41.8 km/h 93.3 km/h 65 % 0 mm 258 W/m2
12:05 8.4 °C 1.9 °C 1004.3 hPa WNW 40.2 km/h 93.3 km/h 64 % 0 mm 258 W/m2
12:10 8.3 °C 1.7 °C 1004.3 hPa WNW 46.7 km/h 46.7 km/h 63 % 0 mm 260 W/m2
12:15 8.4 °C 1.5 °C 1004.6 hPa WNW 45.1 km/h 93.3 km/h 62 % 0 mm 269 W/m2
12:20 8.4 °C 1.5 °C 1004.6 hPa WNW 38.6 km/h 93.3 km/h 62 % 0 mm 260 W/m2
12:25 8.3 °C 1.4 °C 1004.6 hPa WNW 35.4 km/h 93.3 km/h 62 % 0 mm 264 W/m2
12:35 8.4 °C 1.7 °C 1005 hPa WNW 37 km/h 93.3 km/h 63 % 0 mm 334 W/m2
12:40 8.4 °C 2 °C 1005.3 hPa WNW 33.8 km/h 93.3 km/h 64 % 0 mm 306 W/m2
12:45 8.5 °C 2.1 °C 1005.3 hPa West 33.8 km/h 93.3 km/h 64 % 0 mm 325 W/m2
12:50 8.6 °C 2.2 °C 1005.3 hPa WNW 33.8 km/h 33.8 km/h 64 % 0 mm 295 W/m2
12:55 8.7 °C 2 °C 1005.3 hPa West 32.2 km/h 56.3 km/h 63 % 0 mm 253 W/m2
13:00 8.5 °C 1.8 °C 1005.6 hPa NNW 37 km/h 93.3 km/h 63 % 0 mm 260 W/m2
13:10 8.3 °C 1.4 °C 1005.6 hPa West 40.2 km/h 40.2 km/h 62 % 0 mm 244 W/m2
13:15 8.3 °C 1.2 °C 1005.6 hPa NW 38.6 km/h 41.8 km/h 61 % 0 mm 220 W/m2
13:20 8.3 °C 1.4 °C 1006 hPa WNW 35.4 km/h 35.4 km/h 62 % 0 mm 227 W/m2
13:25 8.2 °C 1.1 °C 1006 hPa West 33.8 km/h 93.3 km/h 61 % 0 mm 244 W/m2
13:30 8.3 °C 1.4 °C 1006.3 hPa NW 30.6 km/h 93.3 km/h 62 % 0 mm 227 W/m2
13:35 8.2 °C 1.1 °C 1006 hPa West 32.2 km/h 93.3 km/h 61 % 0 mm 216 W/m2
13:40 8.2 °C 1.1 °C 1006.3 hPa NW 35.4 km/h 93.3 km/h 61 % 0 mm 234 W/m2
13:50 8.2 °C 1.1 °C 1006 hPa WNW 38.6 km/h 38.6 km/h 61 % 0 mm 230 W/m2
13:55 8.2 °C 1.1 °C 1006 hPa West 38.6 km/h 93.3 km/h 61 % 0 mm 236 W/m2
14:00 8.2 °C 1.1 °C 1006 hPa WNW 35.4 km/h 93.3 km/h 61 % 0 mm 186 W/m2
14:10 8 °C 0.9 °C 1006 hPa WNW 40.2 km/h 40.2 km/h 61 % 0 mm 135 W/m2
14:15 7.8 °C 0.8 °C 1006 hPa WNW 38.6 km/h 41.8 km/h 61 % 0 mm 83 W/m2
14:25 7.7 °C 1.3 °C 1005.6 hPa WNW 37 km/h 93.3 km/h 64 % 0 mm 163 W/m2
14:30 7.6 °C 1.4 °C 1006 hPa WNW 35.4 km/h 93.3 km/h 65 % 0 mm 160 W/m2
14:35 7.6 °C 1.7 °C 1006 hPa WNW 33.8 km/h 93.3 km/h 66 % 0 mm 121 W/m2
14:40 7.6 °C 1.4 °C 1006 hPa WNW 30.6 km/h 30.6 km/h 65 % 0 mm 137 W/m2
14:45 7.5 °C 1.3 °C 1006 hPa West 32.2 km/h 45.1 km/h 65 % 0 mm 107 W/m2
14:50 7.4 °C 1.2 °C 1006 hPa West 33.8 km/h 93.3 km/h 65 % 0 mm 98 W/m2
14:55 7.3 °C 1.1 °C 1006.3 hPa WNW 35.4 km/h 93.3 km/h 65 % 0 mm 105 W/m2
15:05 7.1 °C 0.7 °C 1006.3 hPa WNW 33.8 km/h 93.3 km/h 64 % 0 mm 77 W/m2
15:10 7 °C 0.7 °C 1006.7 hPa WNW 32.2 km/h 32.2 km/h 64 % 0 mm 76 W/m2
15:15 6.9 °C 0.8 °C 1006.7 hPa WNW 35.4 km/h 41.8 km/h 65 % 0 mm 40 W/m2
15:20 6.8 °C 0.9 °C 1006.3 hPa West 37 km/h 37 km/h 66 % 0 mm 33 W/m2
15:25 6.7 °C 0.8 °C 1006.7 hPa WNW 35.4 km/h 93.3 km/h 66 % 0 mm 30 W/m2
15:30 6.7 °C 0.8 °C 1006.3 hPa WNW 35.4 km/h 93.3 km/h 66 % 0 mm 30 W/m2
15:40 6.6 °C 0.7 °C 1006.3 hPa WNW 40.2 km/h 40.2 km/h 66 % 0 mm 30 W/m2
15:45 6.6 °C 0.9 °C 1006.3 hPa NNW 38.6 km/h 43.5 km/h 67 % 0 mm 16 W/m2
15:50 6.6 °C 1.1 °C 1006.3 hPa West 37 km/h 37 km/h 68 % 0 mm 21 W/m2
15:55 6.6 °C 1.3 °C 1007 hPa WNW 38.6 km/h 38.6 km/h 69 % 0 mm 12 W/m2
16:00 6.2 °C 1.7 °C 1007 hPa WNW 38.6 km/h 38.6 km/h 73 % 0 mm 9 W/m2
16:05 5.9 °C 1.4 °C 1007 hPa WNW 35.4 km/h 93.3 km/h 73 % 0 mm 7 W/m2
16:10 5.8 °C 1.2 °C 1007 hPa NW 33.8 km/h 93.3 km/h 72 % 0 mm 5 W/m2
16:20 5.8 °C 0.7 °C 1007 hPa WNW 30.6 km/h 93.3 km/h 70 % 0 mm 0 W/m2
16:25 5.8 °C 0.8 °C 1007 hPa NW 30.6 km/h 93.3 km/h 70 % 0 mm 0 W/m2
16:30 5.8 °C 0.6 °C 1007 hPa West 32.2 km/h 32.2 km/h 69 % 0 mm 0 W/m2
16:35 5.9 °C 0.6 °C 1007 hPa West 33.8 km/h 33.8 km/h 69 % 0 mm 0 W/m2
16:40 5.9 °C 0.7 °C 1007 hPa WNW 33.8 km/h 93.3 km/h 69 % 0 mm 0 W/m2
16:50 5.9 °C 0.7 °C 1007.3 hPa WSW 32.2 km/h 32.2 km/h 69 % 0 mm 0 W/m2
16:55 5.9 °C 0.6 °C 1007.3 hPa WNW 30.6 km/h 93.3 km/h 69 % 0 mm 0 W/m2
17:00 5.9 °C 0.8 °C 1007.3 hPa WNW 27.4 km/h 93.3 km/h 70 % 0 mm 0 W/m2
17:05 5.8 °C 0.8 °C 1007.3 hPa West 29 km/h 93.3 km/h 70 % 0 mm 0 W/m2
17:10 5.9 °C 0.8 °C 1007.3 hPa NW 33.8 km/h 93.3 km/h 70 % 0 mm 0 W/m2
17:15 5.9 °C 1.1 °C 1007.7 hPa West 33.8 km/h 93.3 km/h 71 % 0 mm 0 W/m2
17:25 5.9 °C 1.2 °C 1007.3 hPa WNW 30.6 km/h 30.6 km/h 72 % 0 mm 0 W/m2
17:30 5.9 °C 1.1 °C 1007.7 hPa West 32.2 km/h 32.2 km/h 71 % 0 mm 0 W/m2
17:35 5.9 °C 1.1 °C 1007.7 hPa NW 29 km/h 93.3 km/h 71 % 0 mm 0 W/m2
17:40 5.8 °C 1 °C 1007.7 hPa WNW 29 km/h 93.3 km/h 71 % 0 mm 0 W/m2
17:45 5.8 °C 0.8 °C 1007.7 hPa West 32.2 km/h 93.3 km/h 70 % 0 mm 0 W/m2
17:55 5.8 °C 0.7 °C 1007.7 hPa West 37 km/h 93.3 km/h 70 % 0 mm 0 W/m2
18:00 5.7 °C 0.7 °C 1007.7 hPa WNW 35.4 km/h 35.4 km/h 70 % 0 mm 0 W/m2
18:05 5.7 °C 0.7 °C 1007.7 hPa WNW 35.4 km/h 93.3 km/h 70 % 0 mm 0 W/m2
18:15 5.7 °C 1.1 °C 1008 hPa WNW 30.6 km/h 93.3 km/h 72 % 0 mm 0 W/m2
18:20 5.6 °C 1.2 °C 1008 hPa NW 27.4 km/h 27.4 km/h 73 % 0 mm 0 W/m2
18:25 5.6 °C 1.3 °C 1008 hPa WNW 24.1 km/h 29 km/h 74 % 0 mm 0 W/m2
18:35 5.5 °C 1.2 °C 1008.4 hPa West 22.5 km/h 33.8 km/h 74 % 0 mm 0 W/m2
18:40 5.5 °C 1.1 °C 1008.4 hPa WNW 27.4 km/h 27.4 km/h 73 % 0 mm 0 W/m2
18:55 5.5 °C 1.1 °C 1008 hPa WNW 24.1 km/h 41.8 km/h 73 % 0 mm 0 W/m2
19:00 5.5 °C 1.1 °C 1008 hPa WNW 25.7 km/h 35.4 km/h 73 % 0 mm 0 W/m2
19:05 5.5 °C 0.8 °C 1007.7 hPa West 29 km/h 35.4 km/h 72 % 0 mm 0 W/m2
19:10 5.5 °C 0.8 °C 1008 hPa West 32.2 km/h 32.2 km/h 72 % 0 mm 0 W/m2
19:15 5.5 °C 0.8 °C 1007.7 hPa West 32.2 km/h 33.8 km/h 72 % 0 mm 0 W/m2
19:20 5.6 °C 0.7 °C 1007.7 hPa WNW 32.2 km/h 32.2 km/h 71 % 0 mm 0 W/m2
19:25 5.6 °C 0.5 °C 1007.7 hPa WNW 33.8 km/h 33.8 km/h 70 % 0 mm 0 W/m2
19:30 5.5 °C 0.4 °C 1007.7 hPa NW 32.2 km/h 33.8 km/h 70 % 0 mm 0 W/m2
19:40 5.5 °C 0.3 °C 1007.7 hPa WNW 33.8 km/h 33.8 km/h 69 % 0 mm 0 W/m2
19:45 5.5 °C 0.3 °C 1007.7 hPa WNW 35.4 km/h 35.4 km/h 69 % 0 mm 0 W/m2
19:50 5.4 °C 0.3 °C 1008 hPa West 32.2 km/h 48.3 km/h 70 % 0 mm 0 W/m2
19:55 5.4 °C 0.3 °C 1007.7 hPa West 29 km/h 48.3 km/h 70 % 0 mm 0 W/m2
20:00 5.3 °C 0.7 °C 1008 hPa NW 30.6 km/h 48.3 km/h 72 % 0 mm 0 W/m2
20:05 5.2 °C 0.9 °C 1007.7 hPa NW 29 km/h 48.3 km/h 74 % 0 mm 0 W/m2
20:15 4.9 °C 1.2 °C 1008 hPa WNW 27.4 km/h 48.3 km/h 77 % 0 mm 0 W/m2
20:20 4.9 °C 1.4 °C 1008 hPa WNW 25.7 km/h 25.7 km/h 78 % 0 mm 0 W/m2
20:25 4.9 °C 1.7 °C 1007.7 hPa WNW 22.5 km/h 48.3 km/h 80 % 0 mm 0 W/m2
20:30 4.9 °C 1.9 °C 1007.7 hPa WNW 24.1 km/h 24.1 km/h 81 % 0 mm 0 W/m2
20:35 4.8 °C 1.7 °C 1007.7 hPa NW 30.6 km/h 40.2 km/h 80 % 0 mm 0 W/m2
20:40 4.9 °C 1.4 °C 1007.7 hPa WNW 35.4 km/h 35.4 km/h 78 % 0 mm 0 W/m2
20:45 5.1 °C 1.2 °C 1007.7 hPa NW 37 km/h 37 km/h 76 % 0 mm 0 W/m2
20:55 5.1 °C 1.1 °C 1007.3 hPa WNW 35.4 km/h 48.3 km/h 75 % 0 mm 0 W/m2
21:05 5.1 °C 0.8 °C 1007.7 hPa WNW 32.2 km/h 48.3 km/h 74 % 0 mm 0 W/m2
21:10 5.1 °C 0.8 °C 1007.7 hPa West 30.6 km/h 48.3 km/h 74 % 0 mm 0 W/m2
21:15 5.1 °C 1.1 °C 1007.7 hPa West 30.6 km/h 48.3 km/h 75 % 0 mm 0 W/m2
21:20 5.1 °C 1.2 °C 1007.7 hPa West 32.2 km/h 48.3 km/h 76 % 0 mm 0 W/m2
21:30 4.8 °C 1.3 °C 1007.7 hPa West 37 km/h 48.3 km/h 78 % 0 mm 0 W/m2
21:35 4.7 °C 1.3 °C 1007.7 hPa West 30.6 km/h 48.3 km/h 79 % 0 mm 0 W/m2
21:40 4.7 °C 1.6 °C 1008 hPa West 29 km/h 48.3 km/h 80 % 0 mm 0 W/m2
21:45 4.8 °C 1.9 °C 1008 hPa West 35.4 km/h 48.3 km/h 82 % 0 mm 0 W/m2
21:50 4.6 °C 2.1 °C 1008 hPa WNW 35.4 km/h 35.4 km/h 84 % 0 mm 0 W/m2
21:55 4.4 °C 2.1 °C 1008 hPa WNW 30.6 km/h 37 km/h 85 % 0 mm 0 W/m2
22:00 4.2 °C 2.1 °C 1007.7 hPa West 27.4 km/h 27.4 km/h 86 % 0 mm 0 W/m2
22:10 4.4 °C 1.9 °C 1007.7 hPa West 25.7 km/h 48.3 km/h 84 % 0 mm 0 W/m2
22:15 4.6 °C 1.9 °C 1007.7 hPa WSW 29 km/h 48.3 km/h 83 % 0 mm 0 W/m2
22:20 4.7 °C 1.7 °C 1007.7 hPa WNW 32.2 km/h 32.2 km/h 81 % 0 mm 0 W/m2
22:25 4.8 °C 1.7 °C 1007.7 hPa West 33.8 km/h 56.3 km/h 80 % 0 mm 0 W/m2
22:30 4.9 °C 1.6 °C 1007.3 hPa West 37 km/h 37 km/h 79 % 0 mm 0 W/m2
22:35 4.9 °C 1.6 °C 1007.3 hPa West 37 km/h 46.7 km/h 79 % 0 mm 0 W/m2
22:45 4.9 °C 1.4 °C 1007.3 hPa West 37 km/h 56.3 km/h 78 % 0 mm 0 W/m2
22:50 5.1 °C 1.2 °C 1007.3 hPa WNW 37 km/h 37 km/h 76 % 0 mm 0 W/m2
22:55 5.1 °C 1.3 °C 1007.3 hPa WNW 35.4 km/h 48.3 km/h 77 % 0 mm 0 W/m2
23:00 5.1 °C 1.3 °C 1007.3 hPa WNW 33.8 km/h 48.3 km/h 77 % 0 mm 0 W/m2
23:05 5.1 °C 1.6 °C 1007.3 hPa WNW 35.4 km/h 48.3 km/h 78 % 0 mm 0 W/m2
23:10 5.1 °C 1.4 °C 1007.3 hPa NNW 33.8 km/h 33.8 km/h 77 % 0 mm 0 W/m2
23:20 5.2 °C 1.5 °C 1007.3 hPa NW 29 km/h 29 km/h 77 % 0 mm 0 W/m2
23:25 5.3 °C 1.6 °C 1007 hPa WNW 30.6 km/h 30.6 km/h 77 % 0 mm 0 W/m2
23:30 5.3 °C 1.6 °C 1007.3 hPa West 29 km/h 29 km/h 77 % 0 mm 0 W/m2
23:35 5.3 °C 1.8 °C 1007.3 hPa NW 20.9 km/h 48.3 km/h 78 % 0 mm 0 W/m2
23:40 5.2 °C 1.7 °C 1007.3 hPa WNW 20.9 km/h 48.3 km/h 78 % 0 mm 0 W/m2
23:45 5.2 °C 1.5 °C 1007 hPa WNW 25.7 km/h 48.3 km/h 77 % 0 mm 0 W/m2
23:50 5.2 °C 1.5 °C 1007 hPa WNW 30.6 km/h 48.3 km/h 77 % 0 mm 0 W/m2
23:55 5.2 °C 1.3 °C 1007 hPa West 32.2 km/h 48.3 km/h 76 % 0 mm 0 W/m2
Delerius-Weather
Compliments of Weather Underground - 2 mb

Data updates at regular intervals.